Time;durP1;ratioP1;P1;durP2;ratioP2;P2;SDS_P1;SDS_P2;PMS_P1;PMS_P2;Temp;Humidity;BMP_temperature;BMP_pressure;BME280_temperature;BME280_humidity;BME280_pressure;Samples;Min_cycle;Max_cycle;Signal;HPM_P1;HPM_P2
2022/07/09 00:00:40;;;;;;;;;;;;;;;20.66;74.33;99368.06;3159067;28;19932;-66
2022/07/09 00:02:11;;;;;;;;;;;;;;;20.61;74.61;99365.84;3158749;28;19928;-65
2022/07/09 00:03:43;;;;;;;;;;;;;;;20.56;74.47;99368.09;3158707;28;19935;-65
2022/07/09 00:05:14;;;;;;;;;;;;;;;20.55;74.53;99369.06;3158846;28;19930;-66
2022/07/09 00:06:45;;;;;;;;;;;;;;;20.54;74.66;99361.28;3158477;28;19924;-66
2022/07/09 00:08:16;;;;;;;;;;;;;;;20.53;74.86;99364.88;3158470;28;19928;-66
2022/07/09 00:09:47;;;;;;;;;;;;;;;20.51;74.48;99362.38;3158696;28;19992;-65
2022/07/09 00:11:19;;;;;;;;;;;;;;;20.46;75.19;99359.31;3158649;28;19924;-66
2022/07/09 00:12:50;;;;;;;;;;;;;;;20.39;75.43;99358.22;3158527;28;19977;-65
2022/07/09 00:14:23;;;;;;;;;;;;;;;20.33;75.88;99356.16;3158500;28;19939;-66
2022/07/09 00:15:55;;;;;;;;;;;;;;;20.35;75.83;99356.81;3158518;28;19977;-65
2022/07/09 00:17:26;;;;;;;;;;;;;;;20.32;76.46;99351.81;3158719;28;19928;-66
2022/07/09 00:18:58;;;;;;;;;;;;;;;20.28;76.65;99350.44;3158268;28;19927;-66
2022/07/09 00:20:30;;;;;;;;;;;;;;;20.22;77.49;99347.41;3158686;28;19928;-66
2022/07/09 00:22:01;;;;;;;;;;;;;;;20.20;77.22;99349.38;3158652;28;19928;-65
2022/07/09 00:23:33;;;;;;;;;;;;;;;20.17;77.83;99347.00;3158438;28;19977;-66
2022/07/09 00:25:05;;;;;;;;;;;;;;;20.16;78.06;99350.59;3158534;28;19935;-65
2022/07/09 00:26:36;;;;;;;;;;;;;;;20.17;77.52;99356.72;3158694;28;19932;-65
2022/07/09 00:28:07;;;;;;;;;;;;;;;20.18;77.83;99353.94;3158495;28;19985;-65
2022/07/09 00:29:40;;;;;;;;;;;;;;;20.19;77.78;99352.97;3158811;28;20003;-66
2022/07/09 00:31:12;;;;;;;;;;;;;;;20.19;78.15;99347.69;3158439;28;19932;-66
2022/07/09 00:32:43;;;;;;;;;;;;;;;20.18;78.12;99346.03;3158158;28;19981;-66
2022/07/09 00:34:14;;;;;;;;;;;;;;;20.15;78.44;99343.66;3158524;28;19924;-66
2022/07/09 00:35:46;;;;;;;;;;;;;;;20.13;78.61;99348.25;3158431;28;19928;-66
2022/07/09 00:37:16;;;;;;;;;;;;;;;20.12;78.64;99336.00;3164666;28;19980;-65
2022/07/09 00:38:48;;;;;;;;;;;;;;;20.11;78.67;99346.72;3164475;28;19924;-66
2022/07/09 00:40:19;;;;;;;;;;;;;;;20.12;78.65;99346.59;3157387;28;19931;-66
2022/07/09 00:41:51;;;;;;;;;;;;;;;20.12;78.55;99338.66;3158389;28;19924;-65
2022/07/09 00:43:23;;;;;;;;;;;;;;;20.13;78.33;99347.41;3158441;28;19988;-66
2022/07/09 00:44:56;;;;;;;;;;;;;;;20.13;78.42;99347.41;3158286;28;19931;-66
2022/07/09 00:46:28;;;;;;;;;;;;;;;20.11;78.53;99338.78;3158219;28;19978;-65
2022/07/09 00:47:59;;;;;;;;;;;;;;;20.07;78.66;99346.16;3145863;28;19924;-66
2022/07/09 00:49:32;;;;;;;;;;;;;;;20.04;78.75;99338.53;3156529;28;19928;-66
2022/07/09 00:51:04;;;;;;;;;;;;;;;20.02;78.98;99345.75;3158477;28;19932;-66
2022/07/09 00:52:36;;;;;;;;;;;;;;;20.01;79.01;99341.44;3157954;28;19947;-66
2022/07/09 00:54:07;;;;;;;;;;;;;;;20.00;78.66;99337.97;3158121;28;19924;-65
2022/07/09 00:55:39;;;;;;;;;;;;;;;19.98;78.59;99337.28;3158412;28;19923;-66
2022/07/09 00:57:12;;;;;;;;;;;;;;;19.97;78.71;99326.84;3158655;28;19924;-65
2022/07/09 00:58:45;;;;;;;;;;;;;;;19.94;78.91;99332.44;3158138;28;19924;-66
2022/07/09 01:00:18;;;;;;;;;;;;;;;19.91;78.91;99328.25;3156117;28;20084;-65
2022/07/09 01:01:50;;;;;;;;;;;;;;;19.90;78.95;99323.09;3157972;28;19982;-66
2022/07/09 01:03:21;;;;;;;;;;;;;;;19.87;79.05;99324.19;3158337;28;19928;-65
2022/07/09 01:04:52;;;;;;;;;;;;;;;19.88;79.12;99319.78;3158268;28;20037;-65
2022/07/09 01:06:23;;;;;;;;;;;;;;;19.89;78.71;99318.78;3157814;28;20052;-66
2022/07/09 01:07:55;;;;;;;;;;;;;;;19.85;78.80;99314.78;3158452;28;19969;-66
2022/07/09 01:09:26;;;;;;;;;;;;;;;19.83;78.86;99311.44;3158007;28;20356;-65
2022/07/09 01:10:58;;;;;;;;;;;;;;;19.81;78.91;99311.56;3157859;28;20065;-65
2022/07/09 01:12:29;;;;;;;;;;;;;;;19.85;78.58;99314.78;3158345;28;19924;-66
2022/07/09 01:14:01;;;;;;;;;;;;;;;19.86;78.49;99316.44;3158258;28;19962;-66
2022/07/09 01:15:34;;;;;;;;;;;;;;;19.87;77.97;99311.00;3156720;28;19928;-66
2022/07/09 01:17:06;;;;;;;;;;;;;;;19.90;78.04;99309.88;3158212;28;19939;-65
2022/07/09 01:18:37;;;;;;;;;;;;;;;19.94;77.57;99316.56;3158031;28;19924;-66
2022/07/09 01:20:09;;;;;;;;;;;;;;;19.92;77.71;99313.22;3158066;28;20312;-66
2022/07/09 01:21:42;;;;;;;;;;;;;;;19.90;77.85;99318.63;3158026;28;19924;-66
2022/07/09 01:23:14;;;;;;;;;;;;;;;19.92;77.75;99318.50;3157883;28;19936;-66
2022/07/09 01:24:46;;;;;;;;;;;;;;;19.94;77.34;99321.84;3158121;28;20285;-66
2022/07/09 01:26:19;;;;;;;;;;;;;;;19.97;77.49;99318.94;3158197;28;19924;-66
2022/07/09 01:27:51;;;;;;;;;;;;;;;19.96;77.16;99331.28;3157908;28;19939;-66
2022/07/09 01:29:23;;;;;;;;;;;;;;;19.95;77.12;99326.97;3158071;28;20381;-65
2022/07/09 01:30:55;;;;;;;;;;;;;;;19.98;76.85;99325.88;3158020;28;19931;-66
2022/07/09 01:32:27;;;;;;;;;;;;;;;20.00;76.80;99326.56;3157727;28;19950;-66
2022/07/09 01:33:57;;;;;;;;;;;;;;;19.99;76.74;99325.75;3158066;28;19971;-66
2022/07/09 01:35:29;;;;;;;;;;;;;;;19.99;76.72;99322.25;3158170;28;20332;-66
2022/07/09 01:37:02;;;;;;;;;;;;;;;20.01;76.74;99328.22;3157390;28;19931;-66
2022/07/09 01:38:33;;;;;;;;;;;;;;;19.99;76.72;99331.03;3158113;28;19936;-65
2022/07/09 01:40:05;;;;;;;;;;;;;;;19.93;76.73;99317.53;3157576;28;19947;-66
2022/07/09 01:41:37;;;;;;;;;;;;;;;20.04;76.76;99341.16;3157912;28;20379;-65
2022/07/09 01:43:08;;;;;;;;;;;;;;;20.03;76.94;99339.50;3158010;28;19981;-66
2022/07/09 01:44:40;;;;;;;;;;;;;;;20.02;76.87;99339.63;3157436;28;20277;-66
2022/07/09 01:46:12;;;;;;;;;;;;;;;20.02;76.69;99334.34;3158038;28;19944;-66
2022/07/09 01:47:43;;;;;;;;;;;;;;;20.04;76.83;99338.53;3158095;28;20383;-66
2022/07/09 01:49:14;;;;;;;;;;;;;;;20.05;76.68;99334.88;3157641;28;20010;-66
2022/07/09 01:50:46;;;;;;;;;;;;;;;20.08;76.56;99333.78;3158042;28;19924;-66
2022/07/09 01:52:19;;;;;;;;;;;;;;;20.10;76.31;99343.25;3157791;28;19924;-66
2022/07/09 01:53:49;;;;;;;;;;;;;;;20.11;76.07;99339.63;3157685;28;19924;-66
2022/07/09 01:55:21;;;;;;;;;;;;;;;20.13;76.23;99342.97;3158048;28;19928;-65
2022/07/09 01:56:53;;;;;;;;;;;;;;;20.17;75.99;99343.50;3157804;28;19989;-66
2022/07/09 01:58:24;;;;;;;;;;;;;;;20.16;76.63;99347.97;3159022;28;19924;-66
2022/07/09 01:59:56;;;;;;;;;;;;;;;20.20;76.09;99345.88;3160645;28;19928;-66
2022/07/09 02:01:28;;;;;;;;;;;;;;;20.19;76.18;99341.56;3159935;28;19924;-65
2022/07/09 02:02:59;;;;;;;;;;;;;;;20.16;76.25;99342.66;3160187;28;20001;-66
2022/07/09 02:04:31;;;;;;;;;;;;;;;20.14;76.68;99339.34;3160043;28;20446;-65
2022/07/09 02:06:02;;;;;;;;;;;;;;;20.11;77.01;99339.63;3159911;28;20320;-66
2022/07/09 02:07:35;;;;;;;;;;;;;;;20.07;77.00;99335.59;3160292;28;19967;-66
2022/07/09 02:09:07;;;;;;;;;;;;;;;20.05;77.08;99334.88;3160170;28;19928;-66
2022/07/09 02:10:38;;;;;;;;;;;;;;;20.04;77.23;99332.41;3159738;28;19924;-66
2022/07/09 02:12:10;;;;;;;;;;;;;;;20.00;77.29;99340.63;3160362;28;20415;-66
2022/07/09 02:13:42;;;;;;;;;;;;;;;19.97;77.53;99343.53;3160284;28;20286;-66
2022/07/09 02:15:13;;;;;;;;;;;;;;;19.92;78.02;99332.56;3160886;28;19924;-65
2022/07/09 02:16:45;;;;;;;;;;;;;;;19.89;77.93;99332.84;3160203;28;20321;-66
2022/07/09 02:18:16;;;;;;;;;;;;;;;19.87;78.00;99333.94;3160234;28;19932;-66
2022/07/09 02:19:48;;;;;;;;;;;;;;;19.83;78.18;99327.28;3159799;28;19940;-65
2022/07/09 02:21:19;;;;;;;;;;;;;;;19.81;78.45;99331.88;3159875;28;19932;-66
2022/07/09 02:22:53;;;;;;;;;;;;;;;19.77;78.36;99324.22;3159900;28;19925;-66
2022/07/09 02:24:24;;;;;;;;;;;;;;;19.76;78.54;99321.72;3159959;28;19924;-66
2022/07/09 02:25:56;;;;;;;;;;;;;;;19.73;78.63;99322.00;3160320;28;19928;-65
2022/07/09 02:27:26;;;;;;;;;;;;;;;19.71;79.00;99327.41;3159564;28;19947;-65
2022/07/09 02:28:58;;;;;;;;;;;;;;;19.70;79.03;99328.41;3160002;28;20382;-65
2022/07/09 02:30:30;;;;;;;;;;;;;;;19.69;79.38;99324.06;3159911;28;19924;-65
2022/07/09 02:32:01;;;;;;;;;;;;;;;19.67;79.38;99320.75;3159671;28;20375;-66
2022/07/09 02:33:33;;;;;;;;;;;;;;;19.65;79.40;99324.50;3159584;28;19928;-66
2022/07/09 02:35:04;;;;;;;;;;;;;;;19.62;79.70;99328.22;3160113;28;19947;-65
2022/07/09 02:36:36;;;;;;;;;;;;;;;19.61;79.59;99326.56;3160068;28;19924;-66
2022/07/09 02:38:09;;;;;;;;;;;;;;;19.57;79.75;99319.03;3171171;28;19977;-65
2022/07/09 02:39:40;;;;;;;;;;;;;;;19.57;79.47;99326.97;3160034;28;19924;-65
2022/07/09 02:41:12;;;;;;;;;;;;;;;19.56;79.70;99320.84;3151845;28;19978;-66
2022/07/09 02:42:42;;;;;;;;;;;;;;;19.57;79.42;99324.31;3158469;28;19924;-66
2022/07/09 02:44:14;;;;;;;;;;;;;;;19.55;79.25;99322.66;3159276;28;20018;-66
2022/07/09 02:45:45;;;;;;;;;;;;;;;19.55;79.46;99332.38;3159822;28;20482;-66
2022/07/09 02:47:16;;;;;;;;;;;;;;;19.54;79.15;99331.53;3159552;28;20404;-66
2022/07/09 02:48:47;;;;;;;;;;;;;;;19.54;79.24;99320.16;3159267;28;19930;-66
2022/07/09 02:50:19;;;;;;;;;;;;;;;19.52;79.10;99324.72;3159701;28;19963;-65
2022/07/09 02:51:51;;;;;;;;;;;;;;;19.52;78.89;99322.09;3159595;28;19932;-66
2022/07/09 02:53:24;;;;;;;;;;;;;;;19.52;78.94;99314.16;3159380;28;20415;-66
2022/07/09 02:54:56;;;;;;;;;;;;;;;19.51;78.65;99317.78;3156274;28;19928;-66
2022/07/09 02:56:27;;;;;;;;;;;;;;;19.49;78.52;99323.22;3159518;28;19940;-65
2022/07/09 02:57:59;;;;;;;;;;;;;;;19.51;78.17;99328.34;3159497;28;19926;-66
2022/07/09 02:59:29;;;;;;;;;;;;;;;19.51;78.01;99328.34;3159743;28;19924;-66
2022/07/09 03:01:04;;;;;;;;;;;;;;;19.50;77.72;99313.47;3159550;28;19934;-65
2022/07/09 03:02:36;;;;;;;;;;;;;;;19.53;77.46;99315.84;3159179;28;19928;-65
2022/07/09 03:04:07;;;;;;;;;;;;;;;19.54;77.20;99310.41;3159468;28;19924;-66
2022/07/09 03:05:39;;;;;;;;;;;;;;;19.56;76.85;99310.28;3159361;28;19947;-66
2022/07/09 03:07:10;;;;;;;;;;;;;;;19.59;76.56;99306.53;3159671;28;19924;-66
2022/07/09 03:08:43;;;;;;;;;;;;;;;19.59;76.50;99306.53;3159378;28;20362;-66
2022/07/09 03:10:15;;;;;;;;;;;;;;;19.61;76.31;99307.22;3158997;28;20328;-66
2022/07/09 03:11:46;;;;;;;;;;;;;;;19.60;76.08;99306.38;3159648;28;19993;-66
2022/07/09 03:13:17;;;;;;;;;;;;;;;19.62;76.16;99311.53;3159433;28;20441;-65
2022/07/09 03:14:49;;;;;;;;;;;;;;;19.64;75.97;99302.50;3160294;28;19946;-66
2022/07/09 03:16:20;;;;;;;;;;;;;;;19.64;75.93;99313.06;3159217;28;20324;-65
2022/07/09 03:17:52;;;;;;;;;;;;;;;19.64;75.84;99306.94;3159385;28;20321;-66
2022/07/09 03:19:22;;;;;;;;;;;;;;;19.65;75.91;99308.66;3158764;28;20312;-65
2022/07/09 03:20:54;;;;;;;;;;;;;;;19.65;76.00;99309.47;3159470;28;19930;-65
2022/07/09 03:22:27;;;;;;;;;;;;;;;19.65;76.24;99306.84;3159182;28;19935;-66
2022/07/09 03:23:59;;;;;;;;;;;;;;;19.65;76.14;99313.94;3158978;28;19932;-65
2022/07/09 03:25:30;;;;;;;;;;;;;;;19.67;76.23;99314.63;3159462;28;19931;-66
2022/07/09 03:27:02;;;;;;;;;;;;;;;19.67;76.26;99312.84;3159211;28;20396;-66
2022/07/09 03:28:34;;;;;;;;;;;;;;;19.68;75.93;99306.56;3159074;28;20013;-66
2022/07/09 03:30:06;;;;;;;;;;;;;;;19.70;75.85;99312.56;3158315;28;20375;-65
2022/07/09 03:31:38;;;;;;;;;;;;;;;19.72;75.47;99315.88;3158918;28;20312;-66
2022/07/09 03:33:09;;;;;;;;;;;;;;;19.73;75.29;99316.72;3158945;28;19939;-65
2022/07/09 03:34:41;;;;;;;;;;;;;;;19.78;75.29;99311.84;3159117;28;19928;-66
2022/07/09 03:36:13;;;;;;;;;;;;;;;19.80;75.32;99309.91;3158996;28;19932;-66
2022/07/09 03:37:44;;;;;;;;;;;;;;;19.84;75.10;99315.72;3169345;28;19923;-66
2022/07/09 03:39:17;;;;;;;;;;;;;;;19.88;75.02;99312.69;3160652;28;19928;-66
2022/07/09 03:40:49;;;;;;;;;;;;;;;19.94;74.71;99311.28;3158449;28;19924;-66
2022/07/09 03:42:20;;;;;;;;;;;;;;;19.98;74.71;99310.00;3158854;28;19981;-66
2022/07/09 03:43:52;;;;;;;;;;;;;;;20.03;74.78;99312.25;3158923;28;19928;-66
2022/07/09 03:45:23;;;;;;;;;;;;;;;20.04;74.64;99306.81;3158881;28;19977;-66
2022/07/09 03:46:56;;;;;;;;;;;;;;;20.09;74.24;99309.03;3159157;28;19935;-66
2022/07/09 03:48:27;;;;;;;;;;;;;;;20.15;74.22;99314.59;3158547;28;19924;-66
2022/07/09 03:49:59;;;;;;;;;;;;;;;20.19;74.19;99310.66;3158846;28;19924;-66
2022/07/09 03:51:30;;;;;;;;;;;;;;;20.22;74.15;99312.19;3159065;28;19924;-66
2022/07/09 03:53:01;;;;;;;;;;;;;;;20.24;74.05;99310.25;3158338;28;20282;-66
2022/07/09 03:54:34;;;;;;;;;;;;;;;20.27;73.93;99312.59;3158998;28;19931;-66
2022/07/09 03:56:06;;;;;;;;;;;;;;;20.29;73.68;99313.31;3158904;28;19981;-66
2022/07/09 03:57:38;;;;;;;;;;;;;;;20.33;73.58;99313.84;3158638;28;20328;-66
2022/07/09 03:59:09;;;;;;;;;;;;;;;20.35;73.57;99317.16;3158893;28;19928;-66
2022/07/09 04:00:41;;;;;;;;;;;;;;;20.39;73.22;99321.22;3159121;28;19924;-66
2022/07/09 04:02:13;;;;;;;;;;;;;;;20.43;73.37;99326.03;3158239;28;19936;-65
2022/07/09 04:03:44;;;;;;;;;;;;;;;20.45;72.90;99333.84;3158809;28;20011;-66
2022/07/09 04:05:16;;;;;;;;;;;;;;;20.50;72.92;99328.09;3158555;28;19928;-66
2022/07/09 04:06:47;;;;;;;;;;;;;;;20.55;72.62;99328.56;3158796;28;20382;-66
2022/07/09 04:08:19;;;;;;;;;;;;;;;20.60;72.40;99324.50;3158817;28;19977;-65
2022/07/09 04:09:52;;;;;;;;;;;;;;;20.64;72.12;99330.31;3158438;28;20376;-66
2022/07/09 04:11:23;;;;;;;;;;;;;;;20.63;72.01;99321.56;3158559;28;19924;-66
2022/07/09 04:12:55;;;;;;;;;;;;;;;20.71;71.56;99326.13;3158803;28;20049;-66
2022/07/09 04:14:26;;;;;;;;;;;;;;;20.73;70.67;99329.44;3159503;28;19979;-65
2022/07/09 04:15:57;;;;;;;;;;;;;;;20.77;70.79;99328.19;3158527;28;19978;-66
2022/07/09 04:17:29;;;;;;;;;;;;;;;20.80;70.37;99330.56;3158597;28;20010;-65
2022/07/09 04:19:00;;;;;;;;;;;;;;;20.84;70.04;99331.09;3158116;28;19985;-66
2022/07/09 04:20:32;;;;;;;;;;;;;;;20.86;69.78;99335.25;3158059;28;19935;-66
2022/07/09 04:22:02;;;;;;;;;;;;;;;20.91;70.06;99337.44;3158764;28;19924;-65
2022/07/09 04:23:34;;;;;;;;;;;;;;;20.97;70.07;99341.31;3158764;28;19924;-66
2022/07/09 04:25:07;;;;;;;;;;;;;;;20.98;69.76;99333.25;3158427;28;19928;-66
2022/07/09 04:26:38;;;;;;;;;;;;;;;21.01;69.61;99324.19;3151093;28;20258;-66
2022/07/09 04:28:10;;;;;;;;;;;;;;;21.03;69.32;99333.66;3158133;28;19928;-65
2022/07/09 04:29:40;;;;;;;;;;;;;;;21.08;69.05;99333.19;3158682;28;19928;-66
2022/07/09 04:31:12;;;;;;;;;;;;;;;21.09;68.80;99335.72;3158284;28;19924;-66
2022/07/09 04:32:44;;;;;;;;;;;;;;;21.11;68.83;99332.91;3158539;28;19924;-66
2022/07/09 04:34:14;;;;;;;;;;;;;;;21.13;68.63;99328.28;3158555;28;19924;-66
2022/07/09 04:35:46;;;;;;;;;;;;;;;21.16;68.50;99337.75;3158446;28;20379;-66
2022/07/09 04:37:17;;;;;;;;;;;;;;;21.19;68.05;99337.47;3164727;28;19980;-66
2022/07/09 04:38:48;;;;;;;;;;;;;;;21.20;68.18;99336.47;3163990;28;19924;-66
2022/07/09 04:40:21;;;;;;;;;;;;;;;21.21;68.04;99338.97;3158211;28;19939;-66
2022/07/09 04:41:52;;;;;;;;;;;;;;;21.23;68.08;99333.53;3158442;28;19936;-66
2022/07/09 04:43:24;;;;;;;;;;;;;;;21.22;67.60;99334.50;3158345;28;19932;-66
2022/07/09 04:44:57;;;;;;;;;;;;;;;21.24;67.83;99335.22;3158010;28;19998;-65
2022/07/09 04:46:30;;;;;;;;;;;;;;;21.23;67.51;99341.47;3153702;28;19955;-65
2022/07/09 04:48:02;;;;;;;;;;;;;;;21.26;67.79;99338.53;3145687;28;20018;-65
2022/07/09 04:49:33;;;;;;;;;;;;;;;21.30;67.76;99331.97;3157085;28;19924;-67
2022/07/09 04:51:05;;;;;;;;;;;;;;;21.31;67.38;99334.44;3158130;28;19924;-67
2022/07/09 04:52:37;;;;;;;;;;;;;;;21.30;67.25;99335.44;3157711;28;20397;-65
2022/07/09 04:54:08;;;;;;;;;;;;;;;21.30;67.08;99337.25;3158055;28;19924;-65
2022/07/09 04:55:40;;;;;;;;;;;;;;;21.30;66.99;99337.25;3158438;28;19924;-65
2022/07/09 04:57:12;;;;;;;;;;;;;;;21.33;66.86;99331.66;3158023;28;19935;-65
2022/07/09 04:58:51;;;;;;;;;;;;;;;21.32;67.04;99325.50;3158386;28;19931;-66
2022/07/09 05:00:23;;;;;;;;;;;;;;;21.36;67.03;99334.03;3157786;28;19924;-65
2022/07/09 05:01:54;;;;;;;;;;;;;;;21.38;66.92;99329.41;3158317;28;20037;-65
2022/07/09 05:03:26;;;;;;;;;;;;;;;21.42;66.67;99333.44;3157942;28;19924;-65
2022/07/09 05:04:56;;;;;;;;;;;;;;;21.42;66.67;99330.78;3157945;28;19981;-65
2022/07/09 05:06:28;;;;;;;;;;;;;;;21.45;66.42;99345.56;3158318;28;20010;-65
2022/07/09 05:07:59;;;;;;;;;;;;;;;21.45;66.14;99338.44;3158294;28;19924;-65
2022/07/09 05:09:30;;;;;;;;;;;;;;;21.48;66.17;99339.97;3158169;28;20016;-65
2022/07/09 05:11:03;;;;;;;;;;;;;;;21.49;66.35;99339.78;3158137;28;19928;-65
2022/07/09 05:12:34;;;;;;;;;;;;;;;21.51;66.19;99340.47;3157787;28;19988;-65
2022/07/09 05:14:06;;;;;;;;;;;;;;;21.50;66.05;99344.13;3158359;28;19935;-65
2022/07/09 05:15:38;;;;;;;;;;;;;;;21.53;66.14;99340.31;3158677;28;19978;-65
2022/07/09 05:17:10;;;;;;;;;;;;;;;21.55;65.90;99339.19;3158148;28;19924;-65
2022/07/09 05:18:40;;;;;;;;;;;;;;;21.60;65.86;99348.53;3157794;28;19935;-65
2022/07/09 05:20:12;;;;;;;;;;;;;;;21.60;65.72;99341.41;3158061;28;19924;-65
2022/07/09 05:21:44;;;;;;;;;;;;;;;21.63;65.70;99338.44;3157841;28;20269;-65
2022/07/09 05:23:15;;;;;;;;;;;;;;;21.68;65.82;99343.28;3157770;28;19978;-65
2022/07/09 05:24:47;;;;;;;;;;;;;;;21.68;65.32;99343.28;3158059;28;19932;-65
2022/07/09 05:26:19;;;;;;;;;;;;;;;21.70;65.42;99341.31;3157679;28;19924;-65
2022/07/09 05:27:50;;;;;;;;;;;;;;;21.74;65.36;99345.31;3158241;28;19924;-65
2022/07/09 05:29:24;;;;;;;;;;;;;;;21.73;64.91;99344.50;3157985;28;19928;-65
2022/07/09 05:30:55;;;;;;;;;;;;;;;21.75;64.73;99347.81;3157730;28;19963;-65
2022/07/09 05:32:27;;;;;;;;;;;;;;;21.74;64.65;99342.66;3159475;28;20443;-65
2022/07/09 05:34:00;;;;;;;;;;;;;;;21.75;64.67;99339.88;3160577;28;19924;-65
2022/07/09 05:35:31;;;;;;;;;;;;;;;21.79;64.69;99343.06;3160425;28;20010;-65
2022/07/09 05:37:02;;;;;;;;;;;;;;;21.79;64.73;99341.22;3164991;28;19924;-65
2022/07/09 05:38:33;;;;;;;;;;;;;;;21.80;64.48;99345.56;3168295;28;20419;-65
2022/07/09 05:40:06;;;;;;;;;;;;;;;21.79;64.39;99343.88;3160146;28;19947;-65
2022/07/09 05:41:39;;;;;;;;;;;;;;;21.79;64.20;99349.19;3160360;28;19924;-65
2022/07/09 05:43:11;;;;;;;;;;;;;;;21.84;64.42;99337.31;3160360;28;19925;-65
2022/07/09 05:44:42;;;;;;;;;;;;;;;21.84;64.33;99343.44;3160468;28;19973;-66
2022/07/09 05:46:14;;;;;;;;;;;;;;;21.83;64.53;99341.78;3160377;28;19928;-66
2022/07/09 05:47:46;;;;;;;;;;;;;;;21.86;64.32;99341.47;3159863;28;19931;-66
2022/07/09 05:49:17;;;;;;;;;;;;;;;21.89;64.44;99342.97;3160230;28;19931;-66
2022/07/09 05:50:49;;;;;;;;;;;;;;;21.89;64.19;99340.31;3160613;28;19924;-66
2022/07/09 05:52:19;;;;;;;;;;;;;;;21.92;64.20;99346.16;3160222;28;19935;-66
2022/07/09 05:53:51;;;;;;;;;;;;;;;21.89;63.62;99343.81;3160367;28;19932;-66
2022/07/09 05:55:22;;;;;;;;;;;;;;;21.88;63.83;99346.59;3160401;28;20033;-66
2022/07/09 05:56:55;;;;;;;;;;;;;;;21.82;63.70;99345.41;3160443;28;19970;-66
2022/07/09 05:58:27;;;;;;;;;;;;;;;21.79;63.94;99345.69;3160338;28;19985;-66
2022/07/09 05:59:59;;;;;;;;;;;;;;;21.78;64.04;99352.81;3160507;28;19935;-66
2022/07/09 06:01:31;;;;;;;;;;;;;;;21.75;64.06;99342.53;3160433;28;19924;-66
2022/07/09 06:03:01;;;;;;;;;;;;;;;21.74;64.37;99340.88;3160160;28;19932;-66
2022/07/09 06:04:33;;;;;;;;;;;;;;;21.72;64.24;99345.47;3159723;28;19924;-66
2022/07/09 06:06:05;;;;;;;;;;;;;;;21.71;64.61;99340.31;3160036;28;19930;-66
2022/07/09 06:07:36;;;;;;;;;;;;;;;21.70;64.85;99333.38;3160448;28;19975;-66
2022/07/09 06:09:08;;;;;;;;;;;;;;;21.71;64.75;99341.19;3160012;28;19985;-66
2022/07/09 06:10:39;;;;;;;;;;;;;;;21.73;64.78;99335.72;3160601;28;19931;-66
2022/07/09 06:12:11;;;;;;;;;;;;;;;21.76;64.61;99330.94;3160269;28;19928;-66
2022/07/09 06:13:43;;;;;;;;;;;;;;;21.79;64.97;99332.44;3160112;28;20010;-66
2022/07/09 06:15:14;;;;;;;;;;;;;;;21.81;64.96;99336.63;3161173;28;19947;-66
2022/07/09 06:16:47;;;;;;;;;;;;;;;21.80;64.83;99336.78;3160106;28;19985;-66
2022/07/09 06:18:19;;;;;;;;;;;;;;;21.77;64.83;99339.75;3159481;28;20058;-65
2022/07/09 06:19:50;;;;;;;;;;;;;;;21.76;65.00;99340.72;3160429;28;19924;-66
2022/07/09 06:21:22;;;;;;;;;;;;;;;21.77;64.85;99339.75;3159880;28;20014;-66
2022/07/09 06:22:54;;;;;;;;;;;;;;;21.82;64.83;99342.75;3159721;28;20374;-66
2022/07/09 06:24:25;;;;;;;;;;;;;;;21.87;65.01;99339.66;3159950;28;19971;-66
2022/07/09 06:25:57;;;;;;;;;;;;;;;21.94;64.55;99333.56;3160103;28;19932;-66
2022/07/09 06:27:30;;;;;;;;;;;;;;;22.00;64.42;99332.94;3160218;28;19924;-66
2022/07/09 06:29:01;;;;;;;;;;;;;;;22.07;64.11;99327.06;3160201;28;19928;-66
2022/07/09 06:30:33;;;;;;;;;;;;;;;22.11;63.82;99336.34;3159584;28;20032;-66
2022/07/09 06:32:06;;;;;;;;;;;;;;;22.11;63.94;99325.75;3157522;28;20427;-66
2022/07/09 06:33:37;;;;;;;;;;;;;;;22.15;63.73;99327.09;3161872;28;19932;-66
2022/07/09 06:35:09;;;;;;;;;;;;;;;22.19;63.57;99325.84;3159695;28;19924;-66
2022/07/09 06:36:41;;;;;;;;;;;;;;;22.20;62.83;99319.53;3159507;28;19977;-66
2022/07/09 06:38:12;;;;;;;;;;;;;;;22.22;63.17;99325.53;3159854;28;19927;-66
2022/07/09 06:39:48;;;;;;;;;;;;;;;22.25;62.84;99322.56;3159674;28;19928;-65
2022/07/09 06:41:19;;;;;;;;;;;;;;;22.24;62.47;99319.09;3159519;28;20401;-65
2022/07/09 06:42:52;;;;;;;;;;;;;;;22.24;63.00;99315.59;3159761;28;20320;-66
2022/07/09 06:44:24;;;;;;;;;;;;;;;22.24;63.33;99312.94;3159089;28;19924;-66
2022/07/09 06:45:55;;;;;;;;;;;;;;;22.31;62.88;99313.16;3159565;28;19928;-66
2022/07/09 06:47:27;;;;;;;;;;;;;;;22.37;63.37;99310.72;3159336;28;19936;-66
2022/07/09 06:48:59;;;;;;;;;;;;;;;22.46;62.81;99312.41;3159390;28;19924;-66
2022/07/09 06:50:30;;;;;;;;;;;;;;;22.53;62.80;99315.25;3159604;28;19927;-66
2022/07/09 06:52:02;;;;;;;;;;;;;;;22.60;62.57;99315.47;3159227;28;20341;-66
2022/07/09 06:53:33;;;;;;;;;;;;;;;22.65;62.43;99310.50;3155992;28;19928;-66
2022/07/09 06:55:05;;;;;;;;;;;;;;;22.65;61.83;99307.84;3159446;28;20013;-66
2022/07/09 06:56:37;;;;;;;;;;;;;;;22.67;61.97;99305.88;3159235;28;20324;-66
2022/07/09 06:58:10;;;;;;;;;;;;;;;22.66;62.18;99298.94;3159306;28;19924;-66
2022/07/09 06:59:42;;;;;;;;;;;;;;;22.71;62.27;99304.56;3159495;28;19928;-67
2022/07/09 07:01:13;;;;;;;;;;;;;;;22.75;62.24;99305.94;3159833;28;19974;-65
2022/07/09 07:02:45;;;;;;;;;;;;;;;22.79;61.96;99309.91;3159468;28;19931;-66
2022/07/09 07:04:16;;;;;;;;;;;;;;;22.77;61.62;99303.94;3159036;28;19985;-66
2022/07/09 07:05:48;;;;;;;;;;;;;;;22.79;61.49;99307.25;3159364;28;19928;-66
2022/07/09 07:07:20;;;;;;;;;;;;;;;22.80;61.53;99308.91;3159658;28;19931;-66
2022/07/09 07:08:51;;;;;;;;;;;;;;;22.79;61.55;99309.91;3159376;28;19932;-66
2022/07/09 07:10:23;;;;;;;;;;;;;;;22.83;61.37;99313.06;3159601;28;19924;-66
2022/07/09 07:11:54;;;;;;;;;;;;;;;22.79;60.81;99315.22;3159156;28;19928;-66
2022/07/09 07:13:27;;;;;;;;;;;;;;;22.71;61.37;99315.19;3159259;28;20018;-66
2022/07/09 07:14:59;;;;;;;;;;;;;;;22.69;61.28;99304.75;3159576;28;20028;-66
2022/07/09 07:16:30;;;;;;;;;;;;;;;22.70;61.05;99308.22;3159098;28;19931;-66
2022/07/09 07:18:02;;;;;;;;;;;;;;;22.69;61.38;99312.69;3159643;28;19928;-66
2022/07/09 07:19:33;;;;;;;;;;;;;;;22.72;61.55;99311.56;3159066;28;19981;-66
2022/07/09 07:21:05;;;;;;;;;;;;;;;22.77;61.45;99311.06;3159151;28;19954;-66
2022/07/09 07:22:37;;;;;;;;;;;;;;;22.80;61.02;99311.56;3159514;28;19928;-66
2022/07/09 07:24:07;;;;;;;;;;;;;;;22.82;61.10;99320.22;3159218;28;19924;-66
2022/07/09 07:25:39;;;;;;;;;;;;;;;22.79;60.88;99317.06;3158966;28;19976;-66
2022/07/09 07:27:10;;;;;;;;;;;;;;;22.81;60.71;99315.91;3159449;28;20004;-66
2022/07/09 07:28:43;;;;;;;;;;;;;;;22.82;60.57;99314.91;3159365;28;19928;-66
2022/07/09 07:30:15;;;;;;;;;;;;;;;22.86;60.84;99323.38;3158828;28;19924;-66
2022/07/09 07:31:46;;;;;;;;;;;;;;;22.87;60.56;99325.88;3158931;28;20359;-66
2022/07/09 07:33:17;;;;;;;;;;;;;;;22.89;60.57;99321.25;3159452;28;20018;-66
2022/07/09 07:34:49;;;;;;;;;;;;;;;22.93;60.72;99317.28;3158987;28;19931;-66
2022/07/09 07:36:20;;;;;;;;;;;;;;;22.94;60.50;99320.75;3159289;28;19924;-66
2022/07/09 07:37:52;;;;;;;;;;;;;;;22.94;60.77;99324.28;3159033;28;20625;-66
2022/07/09 07:39:25;;;;;;;;;;;;;;;22.97;60.79;99320.47;3159503;28;19924;-66
2022/07/09 07:40:55;;;;;;;;;;;;;;;22.97;60.83;99324.94;3148588;28;19936;-66
2022/07/09 07:42:27;;;;;;;;;;;;;;;22.97;60.48;99327.59;3154786;28;19927;-66
2022/07/09 07:44:00;;;;;;;;;;;;;;;22.90;60.60;99317.59;3159296;28;19924;-66
2022/07/09 07:45:32;;;;;;;;;;;;;;;22.99;60.38;99325.63;3159230;28;19928;-66
2022/07/09 07:47:04;;;;;;;;;;;;;;;23.02;60.15;99322.66;3159822;28;19928;-66
2022/07/09 07:48:36;;;;;;;;;;;;;;;23.06;60.38;99327.47;3168506;28;19924;-66
2022/07/09 07:50:08;;;;;;;;;;;;;;;23.11;60.38;99319.84;3158665;28;20419;-66
2022/07/09 07:51:40;;;;;;;;;;;;;;;23.19;59.87;99313.75;3158659;28;19939;-66
2022/07/09 07:53:12;;;;;;;;;;;;;;;23.29;60.04;99316.25;3159252;28;19928;-66
2022/07/09 07:54:44;;;;;;;;;;;;;;;23.38;59.79;99318.75;3158652;28;20461;-66
2022/07/09 07:56:15;;;;;;;;;;;;;;;23.49;59.97;99317.63;3157880;28;20315;-66
2022/07/09 07:57:47;;;;;;;;;;;;;;;23.55;58.62;99311.66;3158775;28;20270;-66